sensor_id;sensor_type;location;lat;lon;timestamp;pressure;altitude;pressure_sealevel;temperature;humidity
82555;BME280;72219;48.186;11.554;2023-11-19T00:00:18;95810.66;;;14.99;45.83
82555;BME280;72219;48.186;11.554;2023-11-19T00:02:43;95812.47;;;15.06;46.16
82555;BME280;72219;48.186;11.554;2023-11-19T00:05:12;95818.81;;;15.04;46.18
82555;BME280;72219;48.186;11.554;2023-11-19T00:07:40;95810.81;;;15.05;45.79
82555;BME280;72219;48.186;11.554;2023-11-19T00:10:12;95802.03;;;15.06;46.07
82555;BME280;72219;48.186;11.554;2023-11-19T00:12:42;95796.16;;;15.04;46.00
82555;BME280;72219;48.186;11.554;2023-11-19T00:15:09;95776.63;;;15.00;46.14
82555;BME280;72219;48.186;11.554;2023-11-19T00:17:41;95781.19;;;15.06;46.08
82555;BME280;72219;48.186;11.554;2023-11-19T00:20:10;95767.84;;;15.01;45.83
82555;BME280;72219;48.186;11.554;2023-11-19T00:22:36;95759.69;;;15.04;46.09
82555;BME280;72219;48.186;11.554;2023-11-19T00:25:01;95770.28;;;15.03;45.88
82555;BME280;72219;48.186;11.554;2023-11-19T00:27:27;95766.53;;;15.05;46.04
82555;BME280;72219;48.186;11.554;2023-11-19T00:29:52;95763.56;;;15.08;45.68
82555;BME280;72219;48.186;11.554;2023-11-19T00:32:18;95766.19;;;15.00;46.12
82555;BME280;72219;48.186;11.554;2023-11-19T00:34:44;95758.53;;;15.07;46.02
82555;BME280;72219;48.186;11.554;2023-11-19T00:37:09;95748.13;;;14.99;46.16
82555;BME280;72219;48.186;11.554;2023-11-19T00:39:35;95757.38;;;15.09;45.79
82555;BME280;72219;48.186;11.554;2023-11-19T00:42:00;95755.94;;;15.07;45.95
82555;BME280;72219;48.186;11.554;2023-11-19T00:44:26;95748.63;;;15.02;46.02
82555;BME280;72219;48.186;11.554;2023-11-19T00:46:51;95753.84;;;15.02;46.04
82555;BME280;72219;48.186;11.554;2023-11-19T00:49:18;95746.00;;;15.02;45.96
82555;BME280;72219;48.186;11.554;2023-11-19T00:51:44;95741.13;;;14.99;46.04
82555;BME280;72219;48.186;11.554;2023-11-19T00:54:11;95741.59;;;15.03;45.95
82555;BME280;72219;48.186;11.554;2023-11-19T00:56:37;95728.44;;;14.96;46.06
82555;BME280;72219;48.186;11.554;2023-11-19T00:59:04;95730.84;;;14.97;46.12
82555;BME280;72219;48.186;11.554;2023-11-19T01:01:30;95723.38;;;15.03;45.97
82555;BME280;72219;48.186;11.554;2023-11-19T01:03:57;95732.31;;;15.00;46.24
82555;BME280;72219;48.186;11.554;2023-11-19T01:06:30;95724.50;;;15.00;46.17
82555;BME280;72219;48.186;11.554;2023-11-19T01:08:55;95724.16;;;15.03;45.83
82555;BME280;72219;48.186;11.554;2023-11-19T01:11:25;95718.00;;;14.96;46.18
82555;BME280;72219;48.186;11.554;2023-11-19T01:13:52;95720.09;;;15.01;45.91
82555;BME280;72219;48.186;11.554;2023-11-19T01:16:18;95706.09;;;15.02;45.98
82555;BME280;72219;48.186;11.554;2023-11-19T01:18:46;95712.59;;;15.06;45.87
82555;BME280;72219;48.186;11.554;2023-11-19T01:21:11;95711.63;;;15.07;45.93
82555;BME280;72219;48.186;11.554;2023-11-19T01:23:37;95717.81;;;15.06;45.72
82555;BME280;72219;48.186;11.554;2023-11-19T01:26:04;95697.78;;;14.98;46.16
82555;BME280;72219;48.186;11.554;2023-11-19T01:28:30;95700.75;;;14.95;45.95
82555;BME280;72219;48.186;11.554;2023-11-19T01:30:56;95698.09;;;15.03;45.63
82555;BME280;72219;48.186;11.554;2023-11-19T01:33:21;95697.31;;;15.03;45.85
82555;BME280;72219;48.186;11.554;2023-11-19T01:35:47;95700.25;;;15.00;46.11
82555;BME280;72219;48.186;11.554;2023-11-19T01:38:13;95699.25;;;15.01;45.94
82555;BME280;72219;48.186;11.554;2023-11-19T01:40:41;95681.88;;;14.93;46.15
82555;BME280;72219;48.186;11.554;2023-11-19T01:43:07;95684.63;;;15.00;45.94
82555;BME280;72219;48.186;11.554;2023-11-19T01:45:37;95671.91;;;14.96;45.94
82555;BME280;72219;48.186;11.554;2023-11-19T01:48:03;95689.50;;;15.03;46.06
82555;BME280;72219;48.186;11.554;2023-11-19T01:50:30;95678.09;;;15.04;46.06
82555;BME280;72219;48.186;11.554;2023-11-19T01:52:56;95679.69;;;15.05;45.79
82555;BME280;72219;48.186;11.554;2023-11-19T01:55:25;95678.13;;;14.95;45.82
82555;BME280;72219;48.186;11.554;2023-11-19T01:57:54;95677.25;;;15.03;45.95
82555;BME280;72219;48.186;11.554;2023-11-19T02:00:22;95674.03;;;15.01;45.93
82555;BME280;72219;48.186;11.554;2023-11-19T02:02:48;95662.81;;;14.92;46.12
82555;BME280;72219;48.186;11.554;2023-11-19T02:05:14;95661.81;;;14.93;45.97
82555;BME280;72219;48.186;11.554;2023-11-19T02:07:40;95661.00;;;15.01;45.83
82555;BME280;72219;48.186;11.554;2023-11-19T02:10:07;95655.78;;;15.01;46.17
82555;BME280;72219;48.186;11.554;2023-11-19T02:12:38;95658.38;;;15.01;46.03
82555;BME280;72219;48.186;11.554;2023-11-19T02:15:04;95650.41;;;15.03;46.05
82555;BME280;72219;48.186;11.554;2023-11-19T02:17:33;95639.31;;;15.09;45.96
82555;BME280;72219;48.186;11.554;2023-11-19T02:20:00;95635.88;;;15.08;45.86
82555;BME280;72219;48.186;11.554;2023-11-19T02:22:27;95632.16;;;15.03;45.95
82555;BME280;72219;48.186;11.554;2023-11-19T02:25:02;95629.22;;;15.06;45.81
82555;BME280;72219;48.186;11.554;2023-11-19T02:27:54;95624.34;;;15.03;45.84
82555;BME280;72219;48.186;11.554;2023-11-19T02:30:21;95619.78;;;14.96;46.27
82555;BME280;72219;48.186;11.554;2023-11-19T02:32:53;95603.84;;;15.00;46.15
82555;BME280;72219;48.186;11.554;2023-11-19T02:35:19;95605.25;;;15.10;45.94
82555;BME280;72219;48.186;11.554;2023-11-19T02:37:47;95610.66;;;15.09;45.66
82555;BME280;72219;48.186;11.554;2023-11-19T02:40:12;95607.22;;;15.08;45.93
82555;BME280;72219;48.186;11.554;2023-11-19T02:42:38;95595.03;;;15.01;45.85
82555;BME280;72219;48.186;11.554;2023-11-19T02:45:04;95602.69;;;15.02;45.95
82555;BME280;72219;48.186;11.554;2023-11-19T02:47:31;95596.78;;;15.08;45.85
82555;BME280;72219;48.186;11.554;2023-11-19T02:49:56;95587.88;;;15.03;45.29
82555;BME280;72219;48.186;11.554;2023-11-19T02:52:25;95592.56;;;15.07;45.78
82555;BME280;72219;48.186;11.554;2023-11-19T02:54:51;95574.00;;;15.10;45.77
82555;BME280;72219;48.186;11.554;2023-11-19T02:57:17;95579.88;;;15.04;46.03
82555;BME280;72219;48.186;11.554;2023-11-19T02:59:46;95571.91;;;14.97;45.73
82555;BME280;72219;48.186;11.554;2023-11-19T03:02:11;95571.22;;;15.12;45.73
82555;BME280;72219;48.186;11.554;2023-11-19T03:04:40;95577.69;;;15.16;45.77
82555;BME280;72219;48.186;11.554;2023-11-19T03:07:06;95564.88;;;15.06;45.80
82555;BME280;72219;48.186;11.554;2023-11-19T03:09:33;95553.50;;;14.99;45.49
82555;BME280;72219;48.186;11.554;2023-11-19T03:12:00;95566.34;;;15.09;45.87
82555;BME280;72219;48.186;11.554;2023-11-19T03:14:25;95557.53;;;15.10;45.44
82555;BME280;72219;48.186;11.554;2023-11-19T03:16:51;95554.00;;;15.03;46.02
82555;BME280;72219;48.186;11.554;2023-11-19T03:19:16;95557.22;;;15.05;45.91
82555;BME280;72219;48.186;11.554;2023-11-19T03:21:42;95566.66;;;15.06;46.02
82555;BME280;72219;48.186;11.554;2023-11-19T03:24:08;95551.22;;;15.04;45.35
82555;BME280;72219;48.186;11.554;2023-11-19T03:26:34;95557.41;;;15.03;45.96
82555;BME280;72219;48.186;11.554;2023-11-19T03:28:59;95545.03;;;15.05;45.89
82555;BME280;72219;48.186;11.554;2023-11-19T03:31:27;95545.81;;;15.06;45.95
82555;BME280;72219;48.186;11.554;2023-11-19T03:33:55;95549.41;;;15.05;45.68
82555;BME280;72219;48.186;11.554;2023-11-19T03:36:20;95552.13;;;15.11;45.61
82555;BME280;72219;48.186;11.554;2023-11-19T03:38:45;95560.31;;;15.08;45.73
82555;BME280;72219;48.186;11.554;2023-11-19T03:41:12;95558.19;;;15.12;45.59
82555;BME280;72219;48.186;11.554;2023-11-19T03:43:40;95564.53;;;15.09;45.64
82555;BME280;72219;48.186;11.554;2023-11-19T03:46:20;95556.91;;;15.08;45.66
82555;BME280;72219;48.186;11.554;2023-11-19T03:48:47;95557.53;;;15.10;45.47
82555;BME280;72219;48.186;11.554;2023-11-19T03:51:15;95555.94;;;15.09;45.78
82555;BME280;72219;48.186;11.554;2023-11-19T03:53:42;95554.63;;;15.05;45.89
82555;BME280;72219;48.186;11.554;2023-11-19T03:56:08;95564.38;;;15.11;45.58
82555;BME280;72219;48.186;11.554;2023-11-19T03:58:37;95557.03;;;15.14;45.25
82555;BME280;72219;48.186;11.554;2023-11-19T04:01:04;95551.69;;;15.08;45.81
82555;BME280;72219;48.186;11.554;2023-11-19T04:03:31;95544.50;;;15.10;45.47
82555;BME280;72219;48.186;11.554;2023-11-19T04:05:56;95550.06;;;15.07;45.85
82555;BME280;72219;48.186;11.554;2023-11-19T04:08:22;95545.94;;;15.12;45.72
82555;BME280;72219;48.186;11.554;2023-11-19T04:10:48;95549.09;;;15.08;45.67
82555;BME280;72219;48.186;11.554;2023-11-19T04:13:14;95559.81;;;15.13;45.52
82555;BME280;72219;48.186;11.554;2023-11-19T04:15:40;95545.81;;;15.06;45.76
82555;BME280;72219;48.186;11.554;2023-11-19T04:18:06;95557.19;;;15.13;45.36
82555;BME280;72219;48.186;11.554;2023-11-19T04:20:32;95561.22;;;15.16;45.34
82555;BME280;72219;48.186;11.554;2023-11-19T04:22:57;95556.72;;;15.09;45.52
82555;BME280;72219;48.186;11.554;2023-11-19T04:25:25;95562.41;;;15.13;45.52
82555;BME280;72219;48.186;11.554;2023-11-19T04:27:51;95562.72;;;15.10;45.86
82555;BME280;72219;48.186;11.554;2023-11-19T04:30:17;95557.53;;;15.10;45.75
82555;BME280;72219;48.186;11.554;2023-11-19T04:32:43;95561.59;;;15.12;45.77
82555;BME280;72219;48.186;11.554;2023-11-19T04:35:09;95549.22;;;15.14;45.49
82555;BME280;72219;48.186;11.554;2023-11-19T04:37:36;95550.72;;;15.09;45.96
82555;BME280;72219;48.186;11.554;2023-11-19T04:40:02;95559.63;;;15.14;45.53
82555;BME280;72219;48.186;11.554;2023-11-19T04:42:28;95559.94;;;15.20;45.92
82555;BME280;72219;48.186;11.554;2023-11-19T04:44:55;95536.91;;;15.00;45.49
82555;BME280;72219;48.186;11.554;2023-11-19T04:47:21;95560.44;;;15.15;45.64
82555;BME280;72219;48.186;11.554;2023-11-19T04:49:46;95554.59;;;15.13;45.63
82555;BME280;72219;48.186;11.554;2023-11-19T04:52:12;95557.88;;;15.07;45.68
82555;BME280;72219;48.186;11.554;2023-11-19T04:54:43;95560.78;;;15.12;45.66
82555;BME280;72219;48.186;11.554;2023-11-19T04:57:09;95566.31;;;15.17;45.79
82555;BME280;72219;48.186;11.554;2023-11-19T04:59:36;95575.59;;;15.11;45.83
82555;BME280;72219;48.186;11.554;2023-11-19T05:02:02;95558.22;;;15.04;45.58
82555;BME280;72219;48.186;11.554;2023-11-19T05:04:27;95559.16;;;15.11;45.64
82555;BME280;72219;48.186;11.554;2023-11-19T05:06:52;95569.84;;;15.24;45.29
82555;BME280;72219;48.186;11.554;2023-11-19T05:09:18;95576.88;;;15.16;45.48
82555;BME280;72219;48.186;11.554;2023-11-19T05:11:44;95585.22;;;15.11;45.99
82555;BME280;72219;48.186;11.554;2023-11-19T05:14:09;95578.06;;;15.13;45.78
82555;BME280;72219;48.186;11.554;2023-11-19T05:16:34;95585.00;;;15.21;45.54
82555;BME280;72219;48.186;11.554;2023-11-19T05:19:01;95580.47;;;15.14;45.67
82555;BME280;72219;48.186;11.554;2023-11-19T05:21:26;95585.16;;;15.19;45.68
82555;BME280;72219;48.186;11.554;2023-11-19T05:23:53;95590.38;;;15.19;45.71
82555;BME280;72219;48.186;11.554;2023-11-19T05:26:20;95581.09;;;15.17;45.54
82555;BME280;72219;48.186;11.554;2023-11-19T05:28:47;95584.41;;;15.10;45.80
82555;BME280;72219;48.186;11.554;2023-11-19T05:31:13;95601.47;;;15.21;45.70
82555;BME280;72219;48.186;11.554;2023-11-19T05:33:38;95599.84;;;15.20;45.67
82555;BME280;72219;48.186;11.554;2023-11-19T05:36:05;95576.78;;;15.09;45.30
82555;BME280;72219;48.186;11.554;2023-11-19T05:38:30;95581.59;;;15.20;45.72
82555;BME280;72219;48.186;11.554;2023-11-19T05:40:56;95588.09;;;15.24;45.61
82555;BME280;72219;48.186;11.554;2023-11-19T05:43:21;95565.38;;;15.02;45.84
82555;BME280;72219;48.186;11.554;2023-11-19T05:45:47;95580.00;;;15.11;46.01
82555;BME280;72219;48.186;11.554;2023-11-19T05:48:12;95597.53;;;15.25;45.61
82555;BME280;72219;48.186;11.554;2023-11-19T05:50:38;95598.69;;;15.23;45.62
82555;BME280;72219;48.186;11.554;2023-11-19T05:53:04;95596.69;;;15.25;45.69
82555;BME280;72219;48.186;11.554;2023-11-19T05:55:35;95585.78;;;15.29;45.35
82555;BME280;72219;48.186;11.554;2023-11-19T05:58:02;95583.03;;;15.23;45.78
82555;BME280;72219;48.186;11.554;2023-11-19T06:00:30;95580.94;;;15.18;45.62
82555;BME280;72219;48.186;11.554;2023-11-19T06:02:56;95587.84;;;15.34;45.49
82555;BME280;72219;48.186;11.554;2023-11-19T06:05:21;95564.13;;;15.21;45.24
82555;BME280;72219;48.186;11.554;2023-11-19T06:07:46;95579.59;;;15.30;45.60
82555;BME280;72219;48.186;11.554;2023-11-19T06:10:12;95578.56;;;15.31;45.58
82555;BME280;72219;48.186;11.554;2023-11-19T06:12:41;95588.69;;;15.26;45.70
82555;BME280;72219;48.186;11.554;2023-11-19T06:15:07;95603.19;;;15.29;45.42
82555;BME280;72219;48.186;11.554;2023-11-19T06:17:34;95577.53;;;15.18;45.23
82555;BME280;72219;48.186;11.554;2023-11-19T06:20:00;95595.00;;;15.40;45.22
82555;BME280;72219;48.186;11.554;2023-11-19T06:22:27;95568.31;;;15.30;44.96
82555;BME280;72219;48.186;11.554;2023-11-19T06:24:53;95589.97;;;15.39;45.01
82555;BME280;72219;48.186;11.554;2023-11-19T06:27:18;95576.44;;;15.35;45.11
82555;BME280;72219;48.186;11.554;2023-11-19T06:29:44;95593.91;;;15.35;45.25
82555;BME280;72219;48.186;11.554;2023-11-19T06:32:10;95576.44;;;15.35;45.31
82555;BME280;72219;48.186;11.554;2023-11-19T06:34:35;95584.09;;;15.37;45.15
82555;BME280;72219;48.186;11.554;2023-11-19T06:37:02;95585.94;;;15.28;45.55
82555;BME280;72219;48.186;11.554;2023-11-19T06:39:31;95587.22;;;15.32;45.18
82555;BME280;72219;48.186;11.554;2023-11-19T06:41:57;95590.63;;;15.33;45.61
82555;BME280;72219;48.186;11.554;2023-11-19T06:44:24;95589.66;;;15.34;45.27
82555;BME280;72219;48.186;11.554;2023-11-19T06:46:50;95592.38;;;15.40;45.53
82555;BME280;72219;48.186;11.554;2023-11-19T06:49:15;95575.97;;;15.31;45.28
82555;BME280;72219;48.186;11.554;2023-11-19T06:51:43;95596.09;;;15.46;45.24
82555;BME280;72219;48.186;11.554;2023-11-19T06:54:09;95602.28;;;15.45;44.94
82555;BME280;72219;48.186;11.554;2023-11-19T06:56:35;95601.97;;;15.48;45.16
82555;BME280;72219;48.186;11.554;2023-11-19T06:59:03;95598.22;;;15.42;45.13
82555;BME280;72219;48.186;11.554;2023-11-19T07:01:34;95598.88;;;15.44;45.10
82555;BME280;72219;48.186;11.554;2023-11-19T07:04:00;95598.06;;;15.44;45.15
82555;BME280;72219;48.186;11.554;2023-11-19T07:06:27;95601.31;;;15.46;45.22
82555;BME280;72219;48.186;11.554;2023-11-19T07:08:53;95595.13;;;15.47;45.33
82555;BME280;72219;48.186;11.554;2023-11-19T07:11:18;95614.66;;;15.51;45.01
82555;BME280;72219;48.186;11.554;2023-11-19T07:13:45;95597.44;;;15.42;45.19
82555;BME280;72219;48.186;11.554;2023-11-19T07:16:16;95607.97;;;15.48;44.96
82555;BME280;72219;48.186;11.554;2023-11-19T07:18:42;95612.66;;;15.53;45.37
82555;BME280;72219;48.186;11.554;2023-11-19T07:21:09;95613.16;;;15.57;45.24
82555;BME280;72219;48.186;11.554;2023-11-19T07:23:36;95603.25;;;15.52;45.21
82555;BME280;72219;48.186;11.554;2023-11-19T07:26:04;95607.44;;;15.53;45.05
82555;BME280;72219;48.186;11.554;2023-11-19T07:28:30;95614.06;;;15.64;45.07
82555;BME280;72219;48.186;11.554;2023-11-19T07:30:55;95620.63;;;15.60;45.06
82555;BME280;72219;48.186;11.554;2023-11-19T07:33:21;95625.84;;;15.60;45.14
82555;BME280;72219;48.186;11.554;2023-11-19T07:35:47;95629.59;;;15.57;45.15
82555;BME280;72219;48.186;11.554;2023-11-19T07:38:14;95631.94;;;15.52;45.39
82555;BME280;72219;48.186;11.554;2023-11-19T07:40:39;95623.97;;;15.45;45.18
82555;BME280;72219;48.186;11.554;2023-11-19T07:43:05;95658.63;;;15.54;45.23
82555;BME280;72219;48.186;11.554;2023-11-19T07:45:32;95650.31;;;15.59;45.30
82555;BME280;72219;48.186;11.554;2023-11-19T07:47:57;95650.75;;;15.62;45.11
82555;BME280;72219;48.186;11.554;2023-11-19T07:50:23;95631.94;;;15.52;45.03
82555;BME280;72219;48.186;11.554;2023-11-19T07:52:50;95654.56;;;15.52;45.60
82555;BME280;72219;48.186;11.554;2023-11-19T07:55:15;95643.91;;;15.61;45.10
82555;BME280;72219;48.186;11.554;2023-11-19T07:57:41;95643.75;;;15.63;44.89
82555;BME280;72219;48.186;11.554;2023-11-19T08:00:06;95643.09;;;15.61;44.99
82555;BME280;72219;48.186;11.554;2023-11-19T08:02:32;95655.66;;;15.66;44.82
82555;BME280;72219;48.186;11.554;2023-11-19T08:04:58;95641.16;;;15.63;45.22
82555;BME280;72219;48.186;11.554;2023-11-19T08:07:23;95648.63;;;15.66;44.82
82555;BME280;72219;48.186;11.554;2023-11-19T08:09:48;95643.84;;;15.78;44.50
82555;BME280;72219;48.186;11.554;2023-11-19T08:12:15;95647.78;;;15.74;44.88
82555;BME280;72219;48.186;11.554;2023-11-19T08:14:43;95653.25;;;15.79;44.53
82555;BME280;72219;48.186;11.554;2023-11-19T08:17:09;95659.47;;;15.78;44.49
82555;BME280;72219;48.186;11.554;2023-11-19T08:19:34;95650.22;;;15.75;44.64
82555;BME280;72219;48.186;11.554;2023-11-19T08:22:00;95652.13;;;15.81;44.69
82555;BME280;72219;48.186;11.554;2023-11-19T08:24:25;95656.13;;;15.92;44.25
82555;BME280;72219;48.186;11.554;2023-11-19T08:26:51;95654.69;;;15.90;44.25
82555;BME280;72219;48.186;11.554;2023-11-19T08:29:17;95647.22;;;15.87;44.42
82555;BME280;72219;48.186;11.554;2023-11-19T08:31:44;95658.94;;;15.91;44.21
82555;BME280;72219;48.186;11.554;2023-11-19T08:34:12;95664.16;;;15.91;44.46
82555;BME280;72219;48.186;11.554;2023-11-19T08:36:37;95646.13;;;15.73;44.90
82555;BME280;72219;48.186;11.554;2023-11-19T08:39:03;95663.31;;;15.67;45.07
82555;BME280;72219;48.186;11.554;2023-11-19T08:41:28;95667.00;;;15.73;44.74
82555;BME280;72219;48.186;11.554;2023-11-19T08:43:54;95659.19;;;15.73;45.06
82555;BME280;72219;48.186;11.554;2023-11-19T08:46:20;95650.66;;;15.79;44.73
82555;BME280;72219;48.186;11.554;2023-11-19T08:48:45;95657.69;;;15.78;44.74
82555;BME280;72219;48.186;11.554;2023-11-19T08:51:11;95658.47;;;15.79;44.85
82555;BME280;72219;48.186;11.554;2023-11-19T08:53:37;95668.25;;;15.85;44.77
82555;BME280;72219;48.186;11.554;2023-11-19T08:56:02;95662.06;;;15.86;44.52
82555;BME280;72219;48.186;11.554;2023-11-19T08:58:28;95659.00;;;15.74;44.90
82555;BME280;72219;48.186;11.554;2023-11-19T09:00:54;95660.44;;;15.85;44.59
82555;BME280;72219;48.186;11.554;2023-11-19T09:03:19;95656.97;;;15.93;44.35
82555;BME280;72219;48.186;11.554;2023-11-19T09:05:45;95666.25;;;15.95;44.78
82555;BME280;72219;48.186;11.554;2023-11-19T09:08:11;95650.47;;;15.89;44.13
82555;BME280;72219;48.186;11.554;2023-11-19T09:10:37;95651.22;;;15.97;44.68
82555;BME280;72219;48.186;11.554;2023-11-19T09:13:02;95651.97;;;16.06;44.59
82555;BME280;72219;48.186;11.554;2023-11-19T09:15:29;95642.19;;;16.23;44.13
82555;BME280;72219;48.186;11.554;2023-11-19T09:17:54;95652.94;;;16.28;43.67
82555;BME280;72219;48.186;11.554;2023-11-19T09:20:19;95669.47;;;16.44;43.61
82555;BME280;72219;48.186;11.554;2023-11-19T09:22:45;95668.00;;;16.41;43.73
82555;BME280;72219;48.186;11.554;2023-11-19T09:25:11;95674.31;;;16.47;43.27
82555;BME280;72219;48.186;11.554;2023-11-19T09:27:37;95656.41;;;16.44;42.99
82555;BME280;72219;48.186;11.554;2023-11-19T09:30:03;95660.28;;;16.48;43.25
82555;BME280;72219;48.186;11.554;2023-11-19T09:32:29;95674.31;;;16.47;43.42
82555;BME280;72219;48.186;11.554;2023-11-19T09:34:56;95675.84;;;16.41;43.30
82555;BME280;72219;48.186;11.554;2023-11-19T09:37:21;95688.50;;;16.29;43.66
82555;BME280;72219;48.186;11.554;2023-11-19T09:39:49;95663.09;;;16.23;43.56
82555;BME280;72219;48.186;11.554;2023-11-19T09:42:16;95695.47;;;16.37;43.86
82555;BME280;72219;48.186;11.554;2023-11-19T09:44:43;95680.59;;;16.38;43.32
82555;BME280;72219;48.186;11.554;2023-11-19T09:47:10;95669.75;;;16.26;43.67
82555;BME280;72219;48.186;11.554;2023-11-19T09:49:36;95673.13;;;16.35;43.71
82555;BME280;72219;48.186;11.554;2023-11-19T09:52:05;95656.41;;;16.44;43.43
82555;BME280;72219;48.186;11.554;2023-11-19T09:54:30;95658.13;;;16.67;43.43
82555;BME280;72219;48.186;11.554;2023-11-19T09:56:58;95661.66;;;16.74;43.13
82555;BME280;72219;48.186;11.554;2023-11-19T09:59:28;95652.38;;;16.86;42.51
82555;BME280;72219;48.186;11.554;2023-11-19T10:01:54;95651.53;;;16.94;42.62
82555;BME280;72219;48.186;11.554;2023-11-19T10:04:22;95648.13;;;16.85;43.24
82555;BME280;72219;48.186;11.554;2023-11-19T10:06:49;95617.66;;;16.77;42.98
82555;BME280;72219;48.186;11.554;2023-11-19T10:09:15;95631.69;;;17.00;42.20
82555;BME280;72219;48.186;11.554;2023-11-19T10:11:40;95629.34;;;17.05;42.22
82555;BME280;72219;48.186;11.554;2023-11-19T10:14:07;95632.38;;;17.08;42.34
82555;BME280;72219;48.186;11.554;2023-11-19T10:16:34;95626.97;;;16.95;42.70
82555;BME280;72219;48.186;11.554;2023-11-19T10:19:01;95641.41;;;17.06;42.38
82555;BME280;72219;48.186;11.554;2023-11-19T10:21:32;95641.94;;;17.16;42.48
82555;BME280;72219;48.186;11.554;2023-11-19T10:23:58;95634.56;;;17.20;42.35
82555;BME280;72219;48.186;11.554;2023-11-19T10:26:26;95626.97;;;17.10;42.47
82555;BME280;72219;48.186;11.554;2023-11-19T10:28:51;95617.75;;;17.14;42.31
82555;BME280;72219;48.186;11.554;2023-11-19T10:31:18;95624.41;;;17.31;42.01
82555;BME280;72219;48.186;11.554;2023-11-19T10:33:44;95609.09;;;17.28;42.33
82555;BME280;72219;48.186;11.554;2023-11-19T10:36:11;95602.94;;;17.36;41.78
82555;BME280;72219;48.186;11.554;2023-11-19T10:38:41;95590.09;;;17.20;41.98
82555;BME280;72219;48.186;11.554;2023-11-19T10:41:37;95589.22;;;17.34;42.12
82555;BME280;72219;48.186;11.554;2023-11-19T10:44:03;95598.59;;;17.43;41.98
82555;BME280;72219;48.186;11.554;2023-11-19T10:46:42;95607.63;;;17.41;41.86
82555;BME280;72219;48.186;11.554;2023-11-19T10:49:09;95584.94;;;17.26;42.27
82555;BME280;72219;48.186;11.554;2023-11-19T10:51:34;95598.31;;;17.38;41.95
82555;BME280;72219;48.186;11.554;2023-11-19T10:54:04;95602.19;;;17.42;41.91
82555;BME280;72219;48.186;11.554;2023-11-19T10:56:33;95602.19;;;17.42;42.00
82555;BME280;72219;48.186;11.554;2023-11-19T10:59:01;95600.22;;;17.44;42.17
82555;BME280;72219;48.186;11.554;2023-11-19T11:01:35;95595.56;;;17.40;42.15
82555;BME280;72219;48.186;11.554;2023-11-19T11:04:03;95598.91;;;17.55;41.91
82555;BME280;72219;48.186;11.554;2023-11-19T11:06:29;95594.75;;;17.61;41.50
82555;BME280;72219;48.186;11.554;2023-11-19T11:08:55;95597.63;;;17.66;41.41
82555;BME280;72219;48.186;11.554;2023-11-19T11:11:21;95584.16;;;17.69;41.54
82555;BME280;72219;48.186;11.554;2023-11-19T11:13:49;95573.28;;;17.65;41.85
82555;BME280;72219;48.186;11.554;2023-11-19T11:16:18;95569.69;;;17.73;41.37
82555;BME280;72219;48.186;11.554;2023-11-19T11:18:45;95581.59;;;17.76;41.47
82555;BME280;72219;48.186;11.554;2023-11-19T11:21:20;95583.03;;;17.78;41.35
82555;BME280;72219;48.186;11.554;2023-11-19T11:34:54;95578.19;;;17.97;41.04
82555;BME280;72219;48.186;11.554;2023-11-19T11:37:44;95563.06;;;17.92;41.22
82555;BME280;72219;48.186;11.554;2023-11-19T11:40:16;95575.50;;;17.90;41.29
82555;BME280;72219;48.186;11.554;2023-11-19T11:42:44;95573.81;;;18.04;41.12
82555;BME280;72219;48.186;11.554;2023-11-19T11:45:11;95555.88;;;18.01;41.09
82555;BME280;72219;48.186;11.554;2023-11-19T11:50:15;95553.84;;;17.96;41.54
82555;BME280;72219;48.186;11.554;2023-11-19T11:55:28;95572.06;;;18.11;40.98
82555;BME280;72219;48.186;11.554;2023-11-19T11:57:55;95570.66;;;18.09;40.94
82555;BME280;72219;48.186;11.554;2023-11-19T12:00:36;95569.16;;;17.99;41.29
82555;BME280;72219;48.186;11.554;2023-11-19T12:03:07;95568.78;;;18.03;41.17
82555;BME280;72219;48.186;11.554;2023-11-19T12:05:38;95568.56;;;18.04;41.12
82555;BME280;72219;48.186;11.554;2023-11-19T12:08:05;95551.81;;;17.98;41.49
82555;BME280;72219;48.186;11.554;2023-11-19T12:10:37;95552.31;;;17.87;41.67
82555;BME280;72219;48.186;11.554;2023-11-19T12:13:05;95558.31;;;18.03;41.24
82555;BME280;72219;48.186;11.554;2023-11-19T12:15:32;95559.25;;;17.95;41.12
82555;BME280;72219;48.186;11.554;2023-11-19T12:17:58;95559.06;;;17.96;41.05
82555;BME280;72219;48.186;11.554;2023-11-19T12:20:25;95558.44;;;18.23;40.78
82555;BME280;72219;48.186;11.554;2023-11-19T12:22:52;95567.53;;;18.27;40.83
82555;BME280;72219;48.186;11.554;2023-11-19T12:25:20;95557.25;;;18.25;40.56
82555;BME280;72219;48.186;11.554;2023-11-19T12:27:47;95552.91;;;18.39;40.51
82555;BME280;72219;48.186;11.554;2023-11-19T12:30:26;95547.47;;;18.41;40.63
82555;BME280;72219;48.186;11.554;2023-11-19T12:32:52;95533.19;;;18.43;40.73
82555;BME280;72219;48.186;11.554;2023-11-19T12:35:19;95533.56;;;18.40;40.43
82555;BME280;72219;48.186;11.554;2023-11-19T12:37:47;95540.44;;;18.41;40.51
82555;BME280;72219;48.186;11.554;2023-11-19T12:42:40;95529.75;;;18.43;40.63
82555;BME280;72219;48.186;11.554;2023-11-19T12:45:07;95522.31;;;18.40;40.84
82555;BME280;72219;48.186;11.554;2023-11-19T12:47:38;95521.72;;;18.44;40.61
82555;BME280;72219;48.186;11.554;2023-11-19T12:50:05;95526.34;;;18.42;40.68
82555;BME280;72219;48.186;11.554;2023-11-19T12:52:30;95516.88;;;18.41;40.43
82555;BME280;72219;48.186;11.554;2023-11-19T12:54:56;95508.22;;;18.47;40.37
82555;BME280;72219;48.186;11.554;2023-11-19T12:57:36;95513.28;;;18.49;40.46
82555;BME280;72219;48.186;11.554;2023-11-19T13:00:02;95506.16;;;18.36;40.76
82555;BME280;72219;48.186;11.554;2023-11-19T13:02:54;95509.19;;;18.40;40.89
82555;BME280;72219;48.186;11.554;2023-11-19T13:05:40;95515.31;;;18.54;40.58
82555;BME280;72219;48.186;11.554;2023-11-19T13:08:07;95523.53;;;18.44;40.78